sensor_id;sensor_type;location;lat;lon;timestamp;P1;durP1;ratioP1;P2;durP2;ratioP2
56239;SDS011;42154;51.992;5.896;2023-01-09T00:00:13;2.25;;;1.02;;
56239;SDS011;42154;51.992;5.896;2023-01-09T00:02:40;3.45;;;1.40;;
56239;SDS011;42154;51.992;5.896;2023-01-09T00:05:09;2.85;;;1.63;;
56239;SDS011;42154;51.992;5.896;2023-01-09T00:07:36;4.75;;;1.25;;
56239;SDS011;42154;51.992;5.896;2023-01-09T00:10:02;3.33;;;1.40;;
56239;SDS011;42154;51.992;5.896;2023-01-09T00:12:28;3.10;;;1.15;;
56239;SDS011;42154;51.992;5.896;2023-01-09T00:14:54;3.60;;;1.20;;
56239;SDS011;42154;51.992;5.896;2023-01-09T00:17:20;4.30;;;1.00;;
56239;SDS011;42154;51.992;5.896;2023-01-09T00:19:45;2.15;;;1.00;;
56239;SDS011;42154;51.992;5.896;2023-01-09T00:22:11;2.58;;;0.98;;
56239;SDS011;42154;51.992;5.896;2023-01-09T00:24:37;1.80;;;0.68;;
56239;SDS011;42154;51.992;5.896;2023-01-09T00:27:03;2.22;;;0.88;;
56239;SDS011;42154;51.992;5.896;2023-01-09T00:29:29;2.88;;;0.70;;
56239;SDS011;42154;51.992;5.896;2023-01-09T00:31:54;1.00;;;0.70;;
56239;SDS011;42154;51.992;5.896;2023-01-09T00:34:20;3.30;;;0.70;;
56239;SDS011;42154;51.992;5.896;2023-01-09T00:36:46;2.13;;;0.50;;
56239;SDS011;42154;51.992;5.896;2023-01-09T00:39:12;1.10;;;0.43;;
56239;SDS011;42154;51.992;5.896;2023-01-09T00:41:43;1.73;;;0.43;;
56239;SDS011;42154;51.992;5.896;2023-01-09T00:44:14;1.05;;;0.40;;
56239;SDS011;42154;51.992;5.896;2023-01-09T00:46:48;0.80;;;0.50;;
56239;SDS011;42154;51.992;5.896;2023-01-09T00:49:18;1.20;;;0.50;;
56239;SDS011;42154;51.992;5.896;2023-01-09T00:51:45;0.65;;;0.30;;
56239;SDS011;42154;51.992;5.896;2023-01-09T00:54:12;2.95;;;0.55;;
56239;SDS011;42154;51.992;5.896;2023-01-09T00:56:40;0.63;;;0.30;;
56239;SDS011;42154;51.992;5.896;2023-01-09T00:59:06;1.13;;;0.50;;
56239;SDS011;42154;51.992;5.896;2023-01-09T01:01:32;0.88;;;0.40;;
56239;SDS011;42154;51.992;5.896;2023-01-09T01:03:58;2.05;;;0.63;;
56239;SDS011;42154;51.992;5.896;2023-01-09T01:06:43;2.97;;;0.60;;
56239;SDS011;42154;51.992;5.896;2023-01-09T01:09:28;1.02;;;0.40;;
56239;SDS011;42154;51.992;5.896;2023-01-09T01:11:53;1.75;;;0.40;;
56239;SDS011;42154;51.992;5.896;2023-01-09T01:14:19;1.00;;;0.40;;
56239;SDS011;42154;51.992;5.896;2023-01-09T01:16:45;0.63;;;0.30;;
56239;SDS011;42154;51.992;5.896;2023-01-09T01:19:10;0.63;;;0.32;;
56239;SDS011;42154;51.992;5.896;2023-01-09T01:21:36;1.30;;;0.50;;
56239;SDS011;42154;51.992;5.896;2023-01-09T01:24:02;0.68;;;0.40;;
56239;SDS011;42154;51.992;5.896;2023-01-09T01:26:28;2.08;;;0.50;;
56239;SDS011;42154;51.992;5.896;2023-01-09T01:28:56;0.68;;;0.50;;
56239;SDS011;42154;51.992;5.896;2023-01-09T01:31:23;1.15;;;0.60;;
56239;SDS011;42154;51.992;5.896;2023-01-09T01:33:48;2.60;;;0.68;;
56239;SDS011;42154;51.992;5.896;2023-01-09T01:36:14;1.45;;;0.70;;
56239;SDS011;42154;51.992;5.896;2023-01-09T01:38:41;2.33;;;0.93;;
56239;SDS011;42154;51.992;5.896;2023-01-09T01:41:07;1.67;;;0.88;;
56239;SDS011;42154;51.992;5.896;2023-01-09T01:43:49;2.38;;;1.13;;
56239;SDS011;42154;51.992;5.896;2023-01-09T01:46:17;1.35;;;0.85;;
56239;SDS011;42154;51.992;5.896;2023-01-09T01:48:43;1.40;;;0.82;;
56239;SDS011;42154;51.992;5.896;2023-01-09T01:51:10;1.60;;;0.93;;
56239;SDS011;42154;51.992;5.896;2023-01-09T01:53:56;1.70;;;1.00;;
56239;SDS011;42154;51.992;5.896;2023-01-09T01:56:27;2.33;;;0.70;;
56239;SDS011;42154;51.992;5.896;2023-01-09T01:58:57;1.70;;;0.90;;
56239;SDS011;42154;51.992;5.896;2023-01-09T02:01:29;1.33;;;0.95;;
56239;SDS011;42154;51.992;5.896;2023-01-09T02:03:57;2.25;;;1.10;;
56239;SDS011;42154;51.992;5.896;2023-01-09T02:06:24;2.35;;;1.20;;
56239;SDS011;42154;51.992;5.896;2023-01-09T02:08:51;2.78;;;1.40;;
56239;SDS011;42154;51.992;5.896;2023-01-09T02:11:17;2.13;;;1.20;;
56239;SDS011;42154;51.992;5.896;2023-01-09T02:13:44;2.40;;;1.40;;
56239;SDS011;42154;51.992;5.896;2023-01-09T02:16:20;2.17;;;1.17;;
56239;SDS011;42154;51.992;5.896;2023-01-09T02:21:56;2.83;;;1.15;;
56239;SDS011;42154;51.992;5.896;2023-01-09T02:40:59;1.73;;;1.27;;
56239;SDS011;42154;51.992;5.896;2023-01-09T02:46:39;2.28;;;1.15;;
56239;SDS011;42154;51.992;5.896;2023-01-09T02:49:05;1.92;;;1.20;;
56239;SDS011;42154;51.992;5.896;2023-01-09T02:51:50;3.50;;;1.00;;
56239;SDS011;42154;51.992;5.896;2023-01-09T02:54:56;2.22;;;1.00;;
56239;SDS011;42154;51.992;5.896;2023-01-09T03:00:46;2.25;;;1.00;;
56239;SDS011;42154;51.992;5.896;2023-01-09T03:03:39;1.75;;;1.25;;
56239;SDS011;42154;51.992;5.896;2023-01-09T03:09:00;1.85;;;1.08;;
56239;SDS011;42154;51.992;5.896;2023-01-09T03:11:32;3.95;;;1.90;;
56239;SDS011;42154;51.992;5.896;2023-01-09T03:14:06;2.03;;;1.30;;
56239;SDS011;42154;51.992;5.896;2023-01-09T03:16:36;1.60;;;1.00;;
56239;SDS011;42154;51.992;5.896;2023-01-09T03:19:06;3.13;;;1.25;;
56239;SDS011;42154;51.992;5.896;2023-01-09T03:21:35;2.10;;;1.38;;
56239;SDS011;42154;51.992;5.896;2023-01-09T03:24:02;3.03;;;1.65;;
56239;SDS011;42154;51.992;5.896;2023-01-09T03:26:28;6.22;;;1.70;;
56239;SDS011;42154;51.992;5.896;2023-01-09T03:28:55;4.72;;;1.67;;
56239;SDS011;42154;51.992;5.896;2023-01-09T03:31:21;2.22;;;1.25;;
56239;SDS011;42154;51.992;5.896;2023-01-09T03:33:47;4.03;;;2.08;;
56239;SDS011;42154;51.992;5.896;2023-01-09T03:36:16;5.22;;;1.55;;
56239;SDS011;42154;51.992;5.896;2023-01-09T03:38:43;4.50;;;1.55;;
56239;SDS011;42154;51.992;5.896;2023-01-09T03:41:08;3.75;;;1.50;;
56239;SDS011;42154;51.992;5.896;2023-01-09T03:43:34;1.75;;;1.25;;
56239;SDS011;42154;51.992;5.896;2023-01-09T03:46:00;2.75;;;1.17;;
56239;SDS011;42154;51.992;5.896;2023-01-09T03:48:27;4.03;;;1.52;;
56239;SDS011;42154;51.992;5.896;2023-01-09T03:50:53;5.47;;;1.50;;
56239;SDS011;42154;51.992;5.896;2023-01-09T03:53:20;5.00;;;1.60;;
56239;SDS011;42154;51.992;5.896;2023-01-09T03:55:48;2.67;;;1.20;;
56239;SDS011;42154;51.992;5.896;2023-01-09T03:58:16;3.95;;;1.50;;
56239;SDS011;42154;51.992;5.896;2023-01-09T04:00:43;4.15;;;1.42;;
56239;SDS011;42154;51.992;5.896;2023-01-09T04:03:10;7.93;;;1.67;;
56239;SDS011;42154;51.992;5.896;2023-01-09T04:05:37;4.45;;;1.55;;
56239;SDS011;42154;51.992;5.896;2023-01-09T04:08:03;3.22;;;1.27;;
56239;SDS011;42154;51.992;5.896;2023-01-09T04:10:29;3.42;;;1.52;;
56239;SDS011;42154;51.992;5.896;2023-01-09T04:12:55;2.70;;;1.40;;
56239;SDS011;42154;51.992;5.896;2023-01-09T04:15:21;3.78;;;1.50;;
56239;SDS011;42154;51.992;5.896;2023-01-09T04:17:47;4.13;;;1.40;;
56239;SDS011;42154;51.992;5.896;2023-01-09T04:20:13;3.42;;;1.33;;
56239;SDS011;42154;51.992;5.896;2023-01-09T04:22:38;5.70;;;2.08;;
56239;SDS011;42154;51.992;5.896;2023-01-09T04:25:04;3.90;;;1.60;;
56239;SDS011;42154;51.992;5.896;2023-01-09T04:27:30;4.97;;;1.58;;
56239;SDS011;42154;51.992;5.896;2023-01-09T04:29:56;4.72;;;1.48;;
56239;SDS011;42154;51.992;5.896;2023-01-09T04:32:22;4.38;;;1.90;;
56239;SDS011;42154;51.992;5.896;2023-01-09T04:34:48;5.40;;;2.20;;
56239;SDS011;42154;51.992;5.896;2023-01-09T04:37:14;5.63;;;1.77;;
56239;SDS011;42154;51.992;5.896;2023-01-09T04:39:39;5.32;;;1.67;;
56239;SDS011;42154;51.992;5.896;2023-01-09T04:42:08;3.58;;;1.60;;
56239;SDS011;42154;51.992;5.896;2023-01-09T04:44:35;4.00;;;1.65;;
56239;SDS011;42154;51.992;5.896;2023-01-09T04:47:00;2.47;;;1.40;;
56239;SDS011;42154;51.992;5.896;2023-01-09T04:49:26;3.83;;;1.30;;
56239;SDS011;42154;51.992;5.896;2023-01-09T04:51:52;4.35;;;1.48;;
56239;SDS011;42154;51.992;5.896;2023-01-09T04:54:18;4.07;;;1.63;;
56239;SDS011;42154;51.992;5.896;2023-01-09T04:56:45;3.97;;;1.88;;
56239;SDS011;42154;51.992;5.896;2023-01-09T04:59:10;6.00;;;1.83;;
56239;SDS011;42154;51.992;5.896;2023-01-09T05:01:36;9.38;;;2.10;;
56239;SDS011;42154;51.992;5.896;2023-01-09T05:04:02;2.60;;;1.67;;
56239;SDS011;42154;51.992;5.896;2023-01-09T05:06:29;4.65;;;2.28;;
56239;SDS011;42154;51.992;5.896;2023-01-09T05:08:55;5.28;;;2.15;;
56239;SDS011;42154;51.992;5.896;2023-01-09T05:11:22;6.30;;;2.40;;
56239;SDS011;42154;51.992;5.896;2023-01-09T05:13:47;5.65;;;1.90;;
56239;SDS011;42154;51.992;5.896;2023-01-09T05:16:13;4.60;;;2.33;;
56239;SDS011;42154;51.992;5.896;2023-01-09T05:18:39;5.93;;;2.42;;
56239;SDS011;42154;51.992;5.896;2023-01-09T05:21:04;5.45;;;2.10;;
56239;SDS011;42154;51.992;5.896;2023-01-09T05:23:30;5.68;;;2.38;;
56239;SDS011;42154;51.992;5.896;2023-01-09T05:25:56;5.40;;;1.80;;
56239;SDS011;42154;51.992;5.896;2023-01-09T05:28:22;5.10;;;1.70;;
56239;SDS011;42154;51.992;5.896;2023-01-09T05:30:48;7.32;;;2.22;;
56239;SDS011;42154;51.992;5.896;2023-01-09T05:33:14;7.50;;;2.20;;
56239;SDS011;42154;51.992;5.896;2023-01-09T05:35:39;4.20;;;1.80;;
56239;SDS011;42154;51.992;5.896;2023-01-09T05:38:05;4.10;;;1.83;;
56239;SDS011;42154;51.992;5.896;2023-01-09T05:40:31;7.20;;;2.05;;
56239;SDS011;42154;51.992;5.896;2023-01-09T05:42:57;5.28;;;1.80;;
56239;SDS011;42154;51.992;5.896;2023-01-09T05:45:22;5.45;;;1.80;;
56239;SDS011;42154;51.992;5.896;2023-01-09T05:47:48;5.38;;;1.30;;
56239;SDS011;42154;51.992;5.896;2023-01-09T05:50:14;3.80;;;1.42;;
56239;SDS011;42154;51.992;5.896;2023-01-09T05:52:40;3.35;;;1.30;;
56239;SDS011;42154;51.992;5.896;2023-01-09T05:55:06;6.32;;;1.52;;
56239;SDS011;42154;51.992;5.896;2023-01-09T05:57:32;8.00;;;1.95;;
56239;SDS011;42154;51.992;5.896;2023-01-09T05:59:58;3.08;;;1.20;;
56239;SDS011;42154;51.992;5.896;2023-01-09T06:02:23;4.10;;;1.35;;
56239;SDS011;42154;51.992;5.896;2023-01-09T06:04:49;5.32;;;1.60;;
56239;SDS011;42154;51.992;5.896;2023-01-09T06:07:15;6.53;;;1.60;;
56239;SDS011;42154;51.992;5.896;2023-01-09T06:09:41;3.38;;;1.33;;
56239;SDS011;42154;51.992;5.896;2023-01-09T06:12:06;4.00;;;1.40;;
56239;SDS011;42154;51.992;5.896;2023-01-09T06:14:32;4.97;;;1.65;;
56239;SDS011;42154;51.992;5.896;2023-01-09T06:16:58;4.30;;;1.38;;
56239;SDS011;42154;51.992;5.896;2023-01-09T06:19:24;4.13;;;1.40;;
56239;SDS011;42154;51.992;5.896;2023-01-09T06:21:49;5.32;;;1.48;;
56239;SDS011;42154;51.992;5.896;2023-01-09T06:24:17;5.10;;;1.40;;
56239;SDS011;42154;51.992;5.896;2023-01-09T06:26:43;8.20;;;1.50;;
56239;SDS011;42154;51.992;5.896;2023-01-09T06:29:09;6.65;;;1.63;;
56239;SDS011;42154;51.992;5.896;2023-01-09T06:31:35;3.47;;;1.10;;
56239;SDS011;42154;51.992;5.896;2023-01-09T06:34:00;4.50;;;1.30;;
56239;SDS011;42154;51.992;5.896;2023-01-09T06:36:26;2.53;;;1.30;;
56239;SDS011;42154;51.992;5.896;2023-01-09T06:38:52;3.65;;;1.30;;
56239;SDS011;42154;51.992;5.896;2023-01-09T06:41:17;3.95;;;1.42;;
56239;SDS011;42154;51.992;5.896;2023-01-09T06:43:43;6.05;;;1.40;;
56239;SDS011;42154;51.992;5.896;2023-01-09T06:46:09;6.35;;;1.63;;
56239;SDS011;42154;51.992;5.896;2023-01-09T06:48:35;4.55;;;1.40;;
56239;SDS011;42154;51.992;5.896;2023-01-09T06:51:01;5.85;;;1.33;;
56239;SDS011;42154;51.992;5.896;2023-01-09T06:53:26;7.97;;;1.50;;
56239;SDS011;42154;51.992;5.896;2023-01-09T06:55:52;4.55;;;1.48;;
56239;SDS011;42154;51.992;5.896;2023-01-09T06:58:18;6.00;;;1.45;;
56239;SDS011;42154;51.992;5.896;2023-01-09T07:00:44;8.55;;;1.73;;
56239;SDS011;42154;51.992;5.896;2023-01-09T07:03:10;6.45;;;1.60;;
56239;SDS011;42154;51.992;5.896;2023-01-09T07:05:43;5.38;;;1.67;;
56239;SDS011;42154;51.992;5.896;2023-01-09T07:08:10;6.97;;;1.80;;
56239;SDS011;42154;51.992;5.896;2023-01-09T07:10:36;6.63;;;1.67;;
56239;SDS011;42154;51.992;5.896;2023-01-09T07:13:01;6.13;;;1.58;;
56239;SDS011;42154;51.992;5.896;2023-01-09T07:15:27;3.53;;;1.55;;
56239;SDS011;42154;51.992;5.896;2023-01-09T07:17:53;5.80;;;1.58;;
56239;SDS011;42154;51.992;5.896;2023-01-09T07:20:19;8.02;;;1.63;;
56239;SDS011;42154;51.992;5.896;2023-01-09T07:22:45;7.85;;;1.45;;
56239;SDS011;42154;51.992;5.896;2023-01-09T07:25:11;6.28;;;1.20;;
56239;SDS011;42154;51.992;5.896;2023-01-09T07:27:37;7.65;;;2.05;;
56239;SDS011;42154;51.992;5.896;2023-01-09T07:30:03;11.88;;;1.95;;
56239;SDS011;42154;51.992;5.896;2023-01-09T07:32:31;6.13;;;1.70;;
56239;SDS011;42154;51.992;5.896;2023-01-09T07:34:57;5.03;;;1.40;;
56239;SDS011;42154;51.992;5.896;2023-01-09T07:37:23;11.13;;;2.47;;
56239;SDS011;42154;51.992;5.896;2023-01-09T07:39:49;8.43;;;2.05;;
56239;SDS011;42154;51.992;5.896;2023-01-09T07:42:15;3.17;;;1.33;;
56239;SDS011;42154;51.992;5.896;2023-01-09T07:44:41;5.75;;;1.67;;
56239;SDS011;42154;51.992;5.896;2023-01-09T07:47:07;6.40;;;1.60;;
56239;SDS011;42154;51.992;5.896;2023-01-09T07:49:33;6.90;;;1.70;;
56239;SDS011;42154;51.992;5.896;2023-01-09T07:51:58;4.93;;;2.35;;
56239;SDS011;42154;51.992;5.896;2023-01-09T07:54:24;10.27;;;1.92;;
56239;SDS011;42154;51.992;5.896;2023-01-09T07:56:50;7.93;;;2.00;;
56239;SDS011;42154;51.992;5.896;2023-01-09T07:59:17;6.22;;;1.80;;
56239;SDS011;42154;51.992;5.896;2023-01-09T08:01:43;7.40;;;1.77;;
56239;SDS011;42154;51.992;5.896;2023-01-09T08:04:09;7.32;;;2.15;;
56239;SDS011;42154;51.992;5.896;2023-01-09T08:06:35;11.43;;;2.75;;
56239;SDS011;42154;51.992;5.896;2023-01-09T08:09:00;5.55;;;1.88;;
56239;SDS011;42154;51.992;5.896;2023-01-09T08:11:26;9.07;;;2.28;;
56239;SDS011;42154;51.992;5.896;2023-01-09T08:13:52;7.68;;;2.78;;
56239;SDS011;42154;51.992;5.896;2023-01-09T08:16:18;6.95;;;2.33;;
56239;SDS011;42154;51.992;5.896;2023-01-09T08:18:44;11.10;;;2.88;;
56239;SDS011;42154;51.992;5.896;2023-01-09T08:21:10;8.40;;;2.53;;
56239;SDS011;42154;51.992;5.896;2023-01-09T08:23:36;7.22;;;2.83;;
56239;SDS011;42154;51.992;5.896;2023-01-09T08:26:02;5.70;;;2.35;;
56239;SDS011;42154;51.992;5.896;2023-01-09T08:28:29;6.47;;;2.60;;
56239;SDS011;42154;51.992;5.896;2023-01-09T08:30:55;5.47;;;2.38;;
56239;SDS011;42154;51.992;5.896;2023-01-09T08:33:20;4.10;;;2.20;;
56239;SDS011;42154;51.992;5.896;2023-01-09T08:35:46;7.03;;;3.00;;
56239;SDS011;42154;51.992;5.896;2023-01-09T08:38:12;5.60;;;2.30;;
56239;SDS011;42154;51.992;5.896;2023-01-09T08:40:38;7.18;;;2.80;;
56239;SDS011;42154;51.992;5.896;2023-01-09T08:43:03;6.32;;;2.58;;
56239;SDS011;42154;51.992;5.896;2023-01-09T08:45:48;6.90;;;2.63;;
56239;SDS011;42154;51.992;5.896;2023-01-09T08:48:32;6.18;;;2.97;;
56239;SDS011;42154;51.992;5.896;2023-01-09T08:50:58;6.72;;;2.85;;
56239;SDS011;42154;51.992;5.896;2023-01-09T08:53:23;5.78;;;3.10;;
56239;SDS011;42154;51.992;5.896;2023-01-09T08:55:49;6.88;;;3.05;;
56239;SDS011;42154;51.992;5.896;2023-01-09T08:58:15;6.45;;;2.60;;
56239;SDS011;42154;51.992;5.896;2023-01-09T09:00:41;5.25;;;2.83;;
56239;SDS011;42154;51.992;5.896;2023-01-09T09:03:07;4.15;;;2.85;;
56239;SDS011;42154;51.992;5.896;2023-01-09T09:05:35;3.67;;;2.50;;
56239;SDS011;42154;51.992;5.896;2023-01-09T09:08:00;4.63;;;2.65;;
56239;SDS011;42154;51.992;5.896;2023-01-09T09:10:27;4.78;;;3.00;;
56239;SDS011;42154;51.992;5.896;2023-01-09T09:12:55;6.55;;;2.88;;
56239;SDS011;42154;51.992;5.896;2023-01-09T09:15:22;7.10;;;3.13;;
56239;SDS011;42154;51.992;5.896;2023-01-09T09:17:53;7.13;;;3.65;;
56239;SDS011;42154;51.992;5.896;2023-01-09T09:20:27;5.28;;;3.33;;
56239;SDS011;42154;51.992;5.896;2023-01-09T09:22:55;4.65;;;3.22;;
56239;SDS011;42154;51.992;5.896;2023-01-09T09:25:21;6.05;;;3.60;;
56239;SDS011;42154;51.992;5.896;2023-01-09T09:27:47;6.15;;;3.65;;
56239;SDS011;42154;51.992;5.896;2023-01-09T09:30:14;8.18;;;3.88;;
56239;SDS011;42154;51.992;5.896;2023-01-09T09:32:42;8.07;;;4.10;;
56239;SDS011;42154;51.992;5.896;2023-01-09T09:35:08;5.20;;;3.42;;
56239;SDS011;42154;51.992;5.896;2023-01-09T09:37:34;8.13;;;4.40;;
56239;SDS011;42154;51.992;5.896;2023-01-09T09:40:01;6.00;;;4.25;;
56239;SDS011;42154;51.992;5.896;2023-01-09T09:56:30;5.10;;;2.70;;
56239;SDS011;42154;51.992;5.896;2023-01-09T09:59:01;7.85;;;2.88;;
56239;SDS011;42154;51.992;5.896;2023-01-09T10:04:15;5.22;;;2.80;;
56239;SDS011;42154;51.992;5.896;2023-01-09T10:06:55;4.95;;;3.17;;
56239;SDS011;42154;51.992;5.896;2023-01-09T10:14:52;4.50;;;2.50;;
56239;SDS011;42154;51.992;5.896;2023-01-09T10:17:26;5.53;;;2.90;;
56239;SDS011;42154;51.992;5.896;2023-01-09T10:25:39;7.22;;;3.60;;
56239;SDS011;42154;51.992;5.896;2023-01-09T10:39:36;8.73;;;4.50;;
56239;SDS011;42154;51.992;5.896;2023-01-09T10:42:18;8.30;;;3.92;;
56239;SDS011;42154;51.992;5.896;2023-01-09T10:45:02;5.93;;;3.42;;
56239;SDS011;42154;51.992;5.896;2023-01-09T10:47:42;5.50;;;2.78;;
56239;SDS011;42154;51.992;5.896;2023-01-09T10:50:15;6.35;;;3.08;;
56239;SDS011;42154;51.992;5.896;2023-01-09T10:52:51;6.85;;;2.95;;
56239;SDS011;42154;51.992;5.896;2023-01-09T10:58:38;6.22;;;2.95;;
56239;SDS011;42154;51.992;5.896;2023-01-09T11:00:57;6.15;;;2.95;;
56239;SDS011;42154;51.992;5.896;2023-01-09T11:03:26;6.05;;;3.00;;
56239;SDS011;42154;51.992;5.896;2023-01-09T11:05:53;5.82;;;2.20;;
56239;SDS011;42154;51.992;5.896;2023-01-09T11:15:44;6.43;;;2.55;;
56239;SDS011;42154;51.992;5.896;2023-01-09T11:18:18;6.25;;;2.83;;
56239;SDS011;42154;51.992;5.896;2023-01-09T11:20:46;8.55;;;3.20;;
56239;SDS011;42154;51.992;5.896;2023-01-09T11:23:23;8.20;;;2.60;;
56239;SDS011;42154;51.992;5.896;2023-01-09T11:25:51;7.63;;;2.85;;
56239;SDS011;42154;51.992;5.896;2023-01-09T11:28:19;5.05;;;2.30;;
56239;SDS011;42154;51.992;5.896;2023-01-09T11:33:20;5.13;;;2.00;;
56239;SDS011;42154;51.992;5.896;2023-01-09T11:38:43;6.75;;;1.95;;
56239;SDS011;42154;51.992;5.896;2023-01-09T11:41:19;5.80;;;1.80;;
56239;SDS011;42154;51.992;5.896;2023-01-09T11:43:51;7.75;;;2.25;;
56239;SDS011;42154;51.992;5.896;2023-01-09T11:46:36;5.93;;;2.00;;
56239;SDS011;42154;51.992;5.896;2023-01-09T11:51:39;4.68;;;1.92;;
56239;SDS011;42154;51.992;5.896;2023-01-09T11:54:13;4.07;;;1.85;;
56239;SDS011;42154;51.992;5.896;2023-01-09T11:56:43;5.20;;;1.98;;
56239;SDS011;42154;51.992;5.896;2023-01-09T11:59:13;6.63;;;2.15;;
56239;SDS011;42154;51.992;5.896;2023-01-09T12:34:58;8.25;;;2.13;;
56239;SDS011;42154;51.992;5.896;2023-01-09T12:48:21;12.73;;;2.60;;
56239;SDS011;42154;51.992;5.896;2023-01-09T12:53:31;6.68;;;2.33;;
56239;SDS011;42154;51.992;5.896;2023-01-09T12:56:14;7.60;;;2.03;;
56239;SDS011;42154;51.992;5.896;2023-01-09T13:01:23;10.70;;;2.45;;
56239;SDS011;42154;51.992;5.896;2023-01-09T13:04:14;10.00;;;2.60;;
56239;SDS011;42154;51.992;5.896;2023-01-09T13:06:48;10.45;;;2.42;;
56239;SDS011;42154;51.992;5.896;2023-01-09T13:09:27;10.02;;;2.35;;
56239;SDS011;42154;51.992;5.896;2023-01-09T13:14:56;11.82;;;2.47;;
56239;SDS011;42154;51.992;5.896;2023-01-09T13:17:29;8.18;;;2.05;;
56239;SDS011;42154;51.992;5.896;2023-01-09T13:20:48;11.18;;;2.67;;
56239;SDS011;42154;51.992;5.896;2023-01-09T13:23:00;9.50;;;2.42;;
56239;SDS011;42154;51.992;5.896;2023-01-09T13:25:33;16.15;;;3.25;;
56239;SDS011;42154;51.992;5.896;2023-01-09T13:28:23;11.88;;;2.92;;
56239;SDS011;42154;51.992;5.896;2023-01-09T13:31:01;11.05;;;2.85;;
56239;SDS011;42154;51.992;5.896;2023-01-09T13:33:50;7.95;;;2.30;;
56239;SDS011;42154;51.992;5.896;2023-01-09T13:36:23;11.73;;;2.83;;
56239;SDS011;42154;51.992;5.896;2023-01-09T13:38:52;7.43;;;1.60;;
56239;SDS011;42154;51.992;5.896;2023-01-09T13:41:19;8.05;;;1.73;;
56239;SDS011;42154;51.992;5.896;2023-01-09T13:44:05;5.22;;;1.65;;
56239;SDS011;42154;51.992;5.896;2023-01-09T13:46:45;12.13;;;2.17;;
56239;SDS011;42154;51.992;5.896;2023-01-09T13:49:32;5.70;;;1.85;;
56239;SDS011;42154;51.992;5.896;2023-01-09T13:57:27;8.45;;;2.38;;
56239;SDS011;42154;51.992;5.896;2023-01-09T14:00:45;8.98;;;2.50;;
56239;SDS011;42154;51.992;5.896;2023-01-09T14:07:49;6.75;;;2.30;;
56239;SDS011;42154;51.992;5.896;2023-01-09T14:10:26;8.45;;;2.53;;
56239;SDS011;42154;51.992;5.896;2023-01-09T14:12:55;6.25;;;2.45;;
56239;SDS011;42154;51.992;5.896;2023-01-09T14:15:43;6.63;;;2.08;;
56239;SDS011;42154;51.992;5.896;2023-01-09T14:20:55;8.77;;;2.22;;
56239;SDS011;42154;51.992;5.896;2023-01-09T14:23:27;11.05;;;2.30;;
56239;SDS011;42154;51.992;5.896;2023-01-09T14:25:55;6.47;;;2.20;;
56239;SDS011;42154;51.992;5.896;2023-01-09T14:28:25;4.50;;;1.50;;
56239;SDS011;42154;51.992;5.896;2023-01-09T14:35:47;5.72;;;1.35;;
56239;SDS011;42154;51.992;5.896;2023-01-09T14:44:31;6.13;;;1.52;;
56239;SDS011;42154;51.992;5.896;2023-01-09T14:52:47;3.72;;;1.20;;
56239;SDS011;42154;51.992;5.896;2023-01-09T14:55:19;4.18;;;1.15;;
56239;SDS011;42154;51.992;5.896;2023-01-09T14:58:35;5.60;;;1.90;;
56239;SDS011;42154;51.992;5.896;2023-01-09T15:01:15;6.88;;;1.98;;
56239;SDS011;42154;51.992;5.896;2023-01-09T15:03:54;5.70;;;1.60;;
56239;SDS011;42154;51.992;5.896;2023-01-09T15:06:30;3.33;;;1.20;;
56239;SDS011;42154;51.992;5.896;2023-01-09T15:09:02;6.68;;;1.80;;
56239;SDS011;42154;51.992;5.896;2023-01-09T15:11:28;6.82;;;2.13;;
56239;SDS011;42154;51.992;5.896;2023-01-09T15:13:56;5.25;;;1.73;;
56239;SDS011;42154;51.992;5.896;2023-01-09T15:16:24;5.30;;;1.80;;
56239;SDS011;42154;51.992;5.896;2023-01-09T15:18:55;5.90;;;2.13;;
56239;SDS011;42154;51.992;5.896;2023-01-09T15:21:28;5.93;;;2.00;;
56239;SDS011;42154;51.992;5.896;2023-01-09T15:24:09;4.50;;;1.83;;
56239;SDS011;42154;51.992;5.896;2023-01-09T15:26:53;4.97;;;2.08;;
56239;SDS011;42154;51.992;5.896;2023-01-09T15:29:20;4.15;;;1.98;;
56239;SDS011;42154;51.992;5.896;2023-01-09T15:31:48;5.80;;;1.88;;
56239;SDS011;42154;51.992;5.896;2023-01-09T15:34:22;4.95;;;2.22;;
56239;SDS011;42154;51.992;5.896;2023-01-09T15:36:49;9.73;;;2.60;;
56239;SDS011;42154;51.992;5.896;2023-01-09T15:39:24;7.72;;;2.17;;
56239;SDS011;42154;51.992;5.896;2023-01-09T15:41:53;7.78;;;1.98;;
56239;SDS011;42154;51.992;5.896;2023-01-09T15:44:39;5.65;;;2.10;;
56239;SDS011;42154;51.992;5.896;2023-01-09T15:47:10;5.93;;;2.30;;
56239;SDS011;42154;51.992;5.896;2023-01-09T15:49:40;4.68;;;1.70;;
56239;SDS011;42154;51.992;5.896;2023-01-09T15:52:08;7.78;;;2.25;;
56239;SDS011;42154;51.992;5.896;2023-01-09T15:54:37;10.02;;;2.17;;
56239;SDS011;42154;51.992;5.896;2023-01-09T15:59:48;6.85;;;2.42;;
56239;SDS011;42154;51.992;5.896;2023-01-09T16:02:14;9.05;;;2.55;;
56239;SDS011;42154;51.992;5.896;2023-01-09T16:05:04;10.60;;;2.65;;
56239;SDS011;42154;51.992;5.896;2023-01-09T16:07:33;8.30;;;2.30;;
56239;SDS011;42154;51.992;5.896;2023-01-09T16:09:59;7.20;;;2.42;;
56239;SDS011;42154;51.992;5.896;2023-01-09T16:12:26;5.15;;;2.10;;
56239;SDS011;42154;51.992;5.896;2023-01-09T16:14:56;6.15;;;2.03;;
56239;SDS011;42154;51.992;5.896;2023-01-09T16:17:24;9.70;;;2.92;;
56239;SDS011;42154;51.992;5.896;2023-01-09T16:19:52;7.15;;;2.20;;
56239;SDS011;42154;51.992;5.896;2023-01-09T16:22:23;9.40;;;3.03;;
56239;SDS011;42154;51.992;5.896;2023-01-09T16:24:51;7.63;;;2.28;;
56239;SDS011;42154;51.992;5.896;2023-01-09T16:29:54;6.13;;;2.70;;
56239;SDS011;42154;51.992;5.896;2023-01-09T16:32:31;10.73;;;3.08;;
56239;SDS011;42154;51.992;5.896;2023-01-09T16:35:00;7.50;;;2.90;;
56239;SDS011;42154;51.992;5.896;2023-01-09T16:37:29;6.28;;;2.10;;
56239;SDS011;42154;51.992;5.896;2023-01-09T16:42:45;8.75;;;2.60;;
56239;SDS011;42154;51.992;5.896;2023-01-09T16:45:39;10.02;;;3.83;;
56239;SDS011;42154;51.992;5.896;2023-01-09T16:48:13;8.65;;;3.15;;
56239;SDS011;42154;51.992;5.896;2023-01-09T16:50:44;5.90;;;2.33;;
56239;SDS011;42154;51.992;5.896;2023-01-09T16:53:15;9.57;;;3.30;;
56239;SDS011;42154;51.992;5.896;2023-01-09T16:55:43;9.00;;;3.00;;
56239;SDS011;42154;51.992;5.896;2023-01-09T16:58:22;9.57;;;3.45;;
56239;SDS011;42154;51.992;5.896;2023-01-09T17:00:54;7.75;;;3.55;;
56239;SDS011;42154;51.992;5.896;2023-01-09T17:03:20;9.73;;;3.50;;
56239;SDS011;42154;51.992;5.896;2023-01-09T17:05:47;8.23;;;2.75;;
56239;SDS011;42154;51.992;5.896;2023-01-09T17:08:22;6.03;;;3.28;;
56239;SDS011;42154;51.992;5.896;2023-01-09T17:10:53;9.10;;;3.95;;
56239;SDS011;42154;51.992;5.896;2023-01-09T17:13:20;12.23;;;4.55;;
56239;SDS011;42154;51.992;5.896;2023-01-09T17:15:46;11.55;;;4.20;;
56239;SDS011;42154;51.992;5.896;2023-01-09T17:18:17;13.00;;;4.45;;
56239;SDS011;42154;51.992;5.896;2023-01-09T17:20:45;12.18;;;4.53;;
56239;SDS011;42154;51.992;5.896;2023-01-09T17:23:15;12.45;;;4.82;;
56239;SDS011;42154;51.992;5.896;2023-01-09T17:25:42;9.52;;;4.22;;
56239;SDS011;42154;51.992;5.896;2023-01-09T17:28:26;12.93;;;4.35;;
56239;SDS011;42154;51.992;5.896;2023-01-09T17:31:06;11.18;;;4.55;;
56239;SDS011;42154;51.992;5.896;2023-01-09T17:33:36;10.63;;;5.05;;
56239;SDS011;42154;51.992;5.896;2023-01-09T17:36:03;11.52;;;4.60;;
56239;SDS011;42154;51.992;5.896;2023-01-09T17:38:42;11.55;;;4.93;;
56239;SDS011;42154;51.992;5.896;2023-01-09T17:41:10;14.15;;;5.55;;
56239;SDS011;42154;51.992;5.896;2023-01-09T17:43:37;10.18;;;4.47;;
56239;SDS011;42154;51.992;5.896;2023-01-09T17:46:03;11.48;;;4.32;;
56239;SDS011;42154;51.992;5.896;2023-01-09T17:48:29;16.30;;;4.90;;
56239;SDS011;42154;51.992;5.896;2023-01-09T17:50:55;19.77;;;4.93;;
56239;SDS011;42154;51.992;5.896;2023-01-09T17:53:20;12.18;;;4.95;;
56239;SDS011;42154;51.992;5.896;2023-01-09T17:55:48;7.55;;;3.42;;